Mandan, North Dakota
Current Conditions -  °F | °C
As of 2:35 AM on Sunday 26 Oct 2014 (Local Time) from KY19 Reporting Station
Clear Clear  
Wind Chill: 41°   Ceiling: Unl
Heat Index: 46°   Visibility: 10mi
Dew Point: 32°   Wind: 13mph
Humidity: 57%   Direction: 130°SE
Pressure: 29.79"   Gusts: NA
Location:  46.83°N, 100.88°W
Report Text: KY19 260835Z AUTO 13011KT 10SM CLR 08/00 A2979 RMK AO2
Loading
Personal Weather Stations






























Interactive Weather Map
Tropical Storm Tracking
New forecast layout! Learn more

10-Day Weather Forecast

Advertisements
Track Severe Weather on mobile